createdAt,value
2018-06-22T00:01:55.682Z,12.40
2018-06-22T00:04:25.212Z,12.40
2018-06-22T00:06:54.498Z,12.20
2018-06-22T00:09:24.658Z,12.30
2018-06-22T00:11:54.098Z,12.30
2018-06-22T00:14:23.564Z,12.20
2018-06-22T00:16:52.954Z,12.20
2018-06-22T00:19:22.843Z,12.30
2018-06-22T00:21:52.222Z,12.30
2018-06-22T00:24:21.788Z,12.20
2018-06-22T00:26:51.358Z,12.20
2018-06-22T00:29:21.187Z,12.20
2018-06-22T00:31:50.547Z,12.20
2018-06-22T00:34:20.029Z,12.20
2018-06-22T00:36:49.976Z,12.20
2018-06-22T00:39:19.596Z,12.30
2018-06-22T00:41:48.999Z,12.20
2018-06-22T00:44:18.491Z,12.20
2018-06-22T00:46:48.229Z,12.10
2018-06-22T00:49:17.999Z,12.30
2018-06-22T00:51:47.730Z,12.20
2018-06-22T00:54:18.116Z,12.10
2018-06-22T00:56:49.106Z,12.20
2018-06-22T00:59:18.708Z,12.10
2018-06-22T01:01:48.166Z,12.10
2018-06-22T01:04:17.744Z,12.10
2018-06-22T01:06:47.415Z,12.20
2018-06-22T01:09:17.125Z,12.10
2018-06-22T01:11:47.077Z,12.20
2018-06-22T01:14:16.383Z,12.20
2018-06-22T01:16:45.751Z,12.30
2018-06-22T01:19:15.584Z,12.30
2018-06-22T01:21:45.004Z,12.30
2018-06-22T01:24:14.567Z,12.30
2018-06-22T01:26:43.829Z,12.20
2018-06-22T01:29:18.596Z,12.20
2018-06-22T01:31:48.342Z,12.20
2018-06-22T01:34:18.437Z,12.10
2018-06-22T01:36:48.219Z,12.10
2018-06-22T01:39:17.675Z,12.10
2018-06-22T01:41:47.611Z,12.20
2018-06-22T01:44:17.200Z,12.20
2018-06-22T01:46:46.630Z,12.20
2018-06-22T01:49:16.023Z,12.10
2018-06-22T01:51:45.667Z,12.10
2018-06-22T01:54:15.091Z,12.10
2018-06-22T01:56:44.701Z,12.10
2018-06-22T01:59:14.491Z,12.00
2018-06-22T02:01:44.711Z,12.00
2018-06-22T02:04:14.179Z,12.10
2018-06-22T02:06:43.490Z,12.20
2018-06-22T02:09:13.688Z,12.20
2018-06-22T02:11:43.478Z,12.10
2018-06-22T02:14:13.526Z,12.30
2018-06-22T02:16:42.965Z,12.40
2018-06-22T02:19:12.768Z,12.30
2018-06-22T02:21:42.182Z,12.30
2018-06-22T02:24:11.523Z,12.20
2018-06-22T02:26:40.672Z,12.20
2018-06-22T02:29:10.001Z,12.10
2018-06-22T02:31:39.399Z,12.20
2018-06-22T02:34:08.690Z,12.20
2018-06-22T02:36:37.829Z,12.20
2018-06-22T02:39:09.568Z,12.10
2018-06-22T02:41:38.630Z,12.10
2018-06-22T02:44:08.557Z,12.20
2018-06-22T02:46:37.737Z,12.10
2018-06-22T02:49:07.407Z,12.20
2018-06-22T02:51:36.615Z,12.20
2018-06-22T02:54:06.241Z,12.20
2018-06-22T02:56:36.075Z,12.20
2018-06-22T02:59:06.810Z,12.10
2018-06-22T03:01:37.002Z,12.20
2018-06-22T03:04:06.673Z,12.30
2018-06-22T03:06:36.455Z,12.30
2018-06-22T03:09:08.917Z,12.30
2018-06-22T03:11:38.823Z,12.30
2018-06-22T03:14:08.720Z,12.20
2018-06-22T03:16:39.797Z,12.20
2018-06-22T03:19:10.613Z,12.10
2018-06-22T03:21:40.787Z,12.10
2018-06-22T03:24:11.232Z,12.20
2018-06-22T03:26:41.081Z,12.20
2018-06-22T03:29:11.197Z,12.10
2018-06-22T03:31:41.483Z,12.20
2018-06-22T03:34:12.971Z,12.20
2018-06-22T03:36:43.304Z,12.20
2018-06-22T03:39:13.392Z,12.20
2018-06-22T03:41:43.538Z,12.20
2018-06-22T03:44:13.573Z,12.20
2018-06-22T03:46:44.087Z,12.10
2018-06-22T03:49:13.994Z,12.10
2018-06-22T03:51:43.337Z,12.10
2018-06-22T03:54:13.337Z,12.10
2018-06-22T03:56:43.622Z,12.10
2018-06-22T03:59:14.011Z,12.20
2018-06-22T04:01:44.364Z,12.20
2018-06-22T04:04:14.885Z,12.20
2018-06-22T04:06:45.457Z,12.20
2018-06-22T04:09:15.872Z,12.20
2018-06-22T04:11:46.739Z,12.20
2018-06-22T04:14:17.024Z,12.20
2018-06-22T04:16:47.459Z,12.20
2018-06-22T04:19:17.801Z,12.30
2018-06-22T04:21:48.291Z,12.30
2018-06-22T04:24:19.565Z,12.30
2018-06-22T04:26:50.338Z,12.30
2018-06-22T04:29:21.696Z,12.30
2018-06-22T04:31:52.516Z,12.20
2018-06-22T04:34:22.924Z,12.20
2018-06-22T04:36:53.255Z,12.20
2018-06-22T04:39:23.519Z,12.20
2018-06-22T04:41:54.177Z,12.20
2018-06-22T04:44:24.785Z,12.10
2018-06-22T04:46:54.921Z,12.20
2018-06-22T04:49:25.071Z,12.20
2018-06-22T04:51:55.701Z,12.20
2018-06-22T04:54:26.623Z,12.20
2018-06-22T04:56:57.537Z,12.20
2018-06-22T04:59:28.515Z,12.20
2018-06-22T05:01:59.772Z,12.10
2018-06-22T05:04:30.343Z,12.20
2018-06-22T05:07:01.119Z,12.20
2018-06-22T05:09:31.466Z,12.20
2018-06-22T05:12:01.866Z,12.10
2018-06-22T05:14:32.524Z,12.20
2018-06-22T05:17:03.587Z,12.20
2018-06-22T05:19:35.202Z,12.30
2018-06-22T05:22:06.000Z,12.20
2018-06-22T05:24:36.605Z,12.20
2018-06-22T05:27:07.314Z,12.20
2018-06-22T05:29:38.441Z,12.20
2018-06-22T05:32:08.613Z,12.10
2018-06-22T05:34:38.943Z,12.10
2018-06-22T05:37:09.960Z,12.20
2018-06-22T05:39:41.032Z,12.20
2018-06-22T05:42:12.390Z,12.30
2018-06-22T05:44:42.735Z,12.30
2018-06-22T05:47:13.561Z,12.40
2018-06-22T05:49:43.905Z,12.40
2018-06-22T05:52:16.108Z,12.40
2018-06-22T05:54:47.052Z,12.30
2018-06-22T05:57:17.805Z,12.30
2018-06-22T05:59:48.531Z,12.40
2018-06-22T06:02:19.665Z,12.30
2018-06-22T06:04:50.455Z,12.30
2018-06-22T06:07:21.622Z,12.30
2018-06-22T06:09:52.397Z,12.20
2018-06-22T06:12:23.015Z,12.10
2018-06-22T06:14:53.762Z,12.20
2018-06-22T06:17:25.358Z,12.20
2018-06-22T06:19:56.102Z,12.20
2018-06-22T06:22:28.083Z,12.00
2018-06-22T06:24:58.552Z,12.10
2018-06-22T06:27:28.820Z,12.00
2018-06-22T06:29:59.279Z,12.00
2018-06-22T06:32:29.955Z,11.80
2018-06-22T06:35:00.785Z,11.80
2018-06-22T06:37:31.742Z,11.90
2018-06-22T06:40:02.416Z,12.00
2018-06-22T06:42:33.248Z,12.10
2018-06-22T06:45:03.854Z,12.10
2018-06-22T06:47:35.512Z,12.10
2018-06-22T06:50:06.843Z,12.10
2018-06-22T06:52:37.526Z,12.20
2018-06-22T06:55:07.748Z,12.20
2018-06-22T06:57:38.804Z,12.20
2018-06-22T07:00:10.745Z,12.20
2018-06-22T07:02:41.695Z,12.20
2018-06-22T07:05:12.510Z,12.30
2018-06-22T07:07:43.693Z,12.20
2018-06-22T07:10:15.756Z,12.30
2018-06-22T07:12:46.504Z,12.30
2018-06-22T07:15:16.696Z,12.20
2018-06-22T07:17:47.362Z,12.20
2018-06-22T07:20:17.944Z,12.20
2018-06-22T07:22:48.574Z,12.10
2018-06-22T07:25:20.026Z,12.00
2018-06-22T07:27:49.947Z,12.00
2018-06-22T07:30:20.486Z,12.20
2018-06-22T07:32:50.444Z,12.10
2018-06-22T07:35:21.506Z,12.20
2018-06-22T07:37:51.634Z,12.20
2018-06-22T07:40:21.712Z,12.60
2018-06-22T07:42:51.606Z,12.80
2018-06-22T07:45:21.590Z,13.00
2018-06-22T07:47:52.361Z,13.10
2018-06-22T07:50:22.058Z,13.20
2018-06-22T07:52:52.007Z,13.30
2018-06-22T07:55:22.429Z,13.30
2018-06-22T07:57:52.563Z,13.50
2018-06-22T08:00:23.385Z,13.60
2018-06-22T08:02:53.922Z,13.60
2018-06-22T08:05:25.218Z,13.80
2018-06-22T08:07:56.247Z,13.50
2018-06-22T08:10:27.304Z,13.60
2018-06-22T08:12:57.344Z,13.60
2018-06-22T08:15:26.949Z,13.70
2018-06-22T08:17:57.144Z,13.50
2018-06-22T08:20:27.510Z,13.50
2018-06-22T08:22:57.392Z,13.50
2018-06-22T08:25:27.259Z,13.30
2018-06-22T08:27:57.274Z,13.20
2018-06-22T08:30:27.499Z,13.20
2018-06-22T08:32:57.538Z,13.20
2018-06-22T08:35:27.595Z,13.20
2018-06-22T08:37:57.674Z,13.30
2018-06-22T08:40:28.640Z,13.30
2018-06-22T08:42:59.385Z,13.40
2018-06-22T08:45:30.111Z,13.40
2018-06-22T08:48:00.424Z,13.50
2018-06-22T08:50:30.462Z,13.50
2018-06-22T08:53:00.912Z,13.40
2018-06-22T08:55:31.041Z,13.40
2018-06-22T08:58:00.909Z,13.40
2018-06-22T09:00:31.184Z,13.50
2018-06-22T09:03:01.230Z,13.50
2018-06-22T09:05:32.286Z,13.60
2018-06-22T09:08:02.353Z,13.70
2018-06-22T09:10:31.953Z,13.70
2018-06-22T09:13:01.508Z,14.00
2018-06-22T09:15:32.158Z,14.20
2018-06-22T09:18:01.821Z,14.20
2018-06-22T09:20:31.583Z,14.30
2018-06-22T09:23:02.847Z,14.40
2018-06-22T09:25:33.712Z,14.40
2018-06-22T09:28:03.706Z,14.60
2018-06-22T09:30:33.675Z,14.70
2018-06-22T09:33:03.605Z,14.50
2018-06-22T09:35:33.570Z,14.30
2018-06-22T09:38:03.580Z,14.20
2018-06-22T09:40:33.992Z,14.40
2018-06-22T09:43:04.138Z,14.60
2018-06-22T09:45:34.192Z,15.00
2018-06-22T09:48:04.236Z,15.10
2018-06-22T09:50:33.685Z,15.40
2018-06-22T09:53:04.667Z,15.60
2018-06-22T09:55:34.475Z,15.80
2018-06-22T09:58:04.608Z,15.80
2018-06-22T10:00:34.577Z,16.10
2018-06-22T10:03:04.459Z,16.20
2018-06-22T10:05:34.869Z,16.40
2018-06-22T10:08:05.162Z,16.50
2018-06-22T10:10:35.843Z,16.70
2018-06-22T10:13:06.151Z,16.80
2018-06-22T10:15:36.183Z,17.10
2018-06-22T10:18:06.163Z,17.00
2018-06-22T10:20:35.910Z,17.00
2018-06-22T10:23:06.232Z,17.00
2018-06-22T10:25:36.612Z,17.20
2018-06-22T10:28:06.858Z,17.40
2018-06-22T10:30:37.275Z,17.60
2018-06-22T10:33:07.317Z,17.80
2018-06-22T10:35:37.319Z,17.70
2018-06-22T10:38:07.821Z,17.70
2018-06-22T10:40:38.336Z,17.80
2018-06-22T10:43:08.998Z,18.00
2018-06-22T10:45:39.926Z,18.10
2018-06-22T10:48:09.910Z,18.00
2018-06-22T10:50:39.624Z,17.80
2018-06-22T10:53:09.417Z,17.30
2018-06-22T10:55:39.419Z,17.10
2018-06-22T10:58:09.912Z,16.80
2018-06-22T11:00:39.995Z,16.70
2018-06-22T11:03:10.079Z,16.60
2018-06-22T11:05:40.086Z,16.60
2018-06-22T11:08:10.435Z,16.50
2018-06-22T11:10:40.461Z,16.40
2018-06-22T11:13:11.220Z,17.00
2018-06-22T11:15:41.885Z,17.50
2018-06-22T11:18:11.583Z,17.70
2018-06-22T11:20:41.193Z,17.90
2018-06-22T11:23:11.053Z,18.10
2018-06-22T11:25:41.029Z,18.10
2018-06-22T11:28:10.848Z,18.30
2018-06-22T11:30:41.154Z,18.30
2018-06-22T11:33:11.055Z,18.50
2018-06-22T11:35:41.112Z,18.50
2018-06-22T11:38:11.175Z,18.10
2018-06-22T11:40:41.313Z,18.30
2018-06-22T11:43:11.585Z,18.50
2018-06-22T11:45:42.911Z,18.70
2018-06-22T11:48:12.509Z,18.50
2018-06-22T11:50:42.124Z,18.80
2018-06-22T11:53:11.703Z,18.80
2018-06-22T11:55:41.959Z,18.70
2018-06-22T11:58:11.769Z,19.00
2018-06-22T12:00:42.470Z,18.90
2018-06-22T12:03:12.367Z,18.90
2018-06-22T12:05:42.607Z,18.80
2018-06-22T12:08:12.922Z,18.80
2018-06-22T12:10:42.959Z,18.70
2018-06-22T12:13:12.849Z,18.60
2018-06-22T12:15:43.447Z,18.50
2018-06-22T12:18:13.807Z,18.30
2018-06-22T12:20:43.731Z,18.30
2018-06-22T12:23:13.505Z,18.00
2018-06-22T12:25:43.677Z,17.90
2018-06-22T12:28:14.067Z,18.00
2018-06-22T12:30:44.547Z,17.90
2018-06-22T12:33:15.219Z,17.90
2018-06-22T12:35:45.525Z,17.80
2018-06-22T12:38:15.997Z,17.60
2018-06-22T12:40:46.369Z,17.50
2018-06-22T12:43:16.547Z,17.60
2018-06-22T12:45:46.135Z,17.50
2018-06-22T12:48:16.474Z,17.70
2018-06-22T12:50:46.326Z,17.80
2018-06-22T12:53:16.337Z,17.90
2018-06-22T12:55:45.993Z,17.80
2018-06-22T12:58:15.897Z,17.80
2018-06-22T13:00:46.162Z,17.30
2018-06-22T13:03:16.479Z,16.60
2018-06-22T13:05:47.279Z,16.50
2018-06-22T13:08:17.532Z,16.30
2018-06-22T13:10:47.758Z,16.20
2018-06-22T13:13:17.909Z,16.10
2018-06-22T13:15:47.755Z,16.20
2018-06-22T13:18:17.839Z,16.20
2018-06-22T13:20:47.464Z,16.40
2018-06-22T13:23:17.175Z,16.50
2018-06-22T13:25:47.387Z,16.60
2018-06-22T13:28:17.172Z,16.80
2018-06-22T13:30:47.148Z,17.00
2018-06-22T13:33:17.277Z,17.20
2018-06-22T13:35:47.308Z,17.30
2018-06-22T13:38:17.885Z,17.30
2018-06-22T13:40:47.566Z,17.30
2018-06-22T13:43:17.296Z,17.40
2018-06-22T13:45:46.902Z,17.60
2018-06-22T13:48:17.367Z,17.70
2018-06-22T13:50:47.566Z,17.70
2018-06-22T13:53:17.746Z,17.70
2018-06-22T13:55:48.423Z,17.80
2018-06-22T13:58:18.449Z,17.70
2018-06-22T14:00:48.416Z,17.50
2018-06-22T14:03:19.915Z,17.60
2018-06-22T14:05:55.229Z,17.50
2018-06-22T14:08:25.112Z,17.40
2018-06-22T14:10:55.012Z,17.30
2018-06-22T14:13:25.109Z,17.60
2018-06-22T14:15:54.678Z,17.70
2018-06-22T14:18:24.090Z,17.90
2018-06-22T14:20:54.393Z,18.00
2018-06-22T14:23:23.795Z,18.10
2018-06-22T14:25:53.746Z,18.30
2018-06-22T14:28:23.656Z,18.30
2018-06-22T14:30:53.674Z,18.40
2018-06-22T14:33:23.475Z,18.40
2018-06-22T14:35:52.991Z,18.40
2018-06-22T14:38:23.259Z,18.50
2018-06-22T14:40:53.017Z,18.50
2018-06-22T14:43:22.699Z,18.70
2018-06-22T14:45:53.721Z,18.90
2018-06-22T14:48:23.867Z,18.90
2018-06-22T14:50:53.659Z,18.80
2018-06-22T14:53:28.859Z,18.80
2018-06-22T14:56:03.907Z,18.80
2018-06-22T14:58:39.012Z,18.80
2018-06-22T15:01:13.897Z,18.70
2018-06-22T15:03:48.896Z,18.30
2018-06-22T15:06:23.937Z,18.20
2018-06-22T15:08:53.796Z,18.40
2018-06-22T15:11:23.754Z,18.30
2018-06-22T15:13:53.736Z,18.10
2018-06-22T15:16:23.594Z,18.30
2018-06-22T15:18:53.235Z,18.40
2018-06-22T15:21:23.053Z,18.60
2018-06-22T15:23:53.123Z,18.60
2018-06-22T15:26:23.560Z,18.70
2018-06-22T15:28:53.487Z,18.70
2018-06-22T15:31:23.590Z,18.70
2018-06-22T15:33:58.447Z,18.60
2018-06-22T15:36:33.824Z,18.60
2018-06-22T15:39:11.203Z,18.40
2018-06-22T15:41:46.269Z,18.40
2018-06-22T15:44:21.231Z,18.10
2018-06-22T15:46:56.118Z,18.00
2018-06-22T15:49:31.178Z,17.90
2018-06-22T15:52:06.047Z,18.00
2018-06-22T15:54:40.985Z,17.90
2018-06-22T15:57:10.751Z,17.90
2018-06-22T15:59:40.916Z,18.00
2018-06-22T16:02:16.100Z,18.30
2018-06-22T16:04:45.741Z,18.30
2018-06-22T16:07:16.036Z,18.10
2018-06-22T16:09:51.238Z,18.20
2018-06-22T16:12:39.860Z,18.30
2018-06-22T16:15:16.213Z,18.20
2018-06-22T16:17:51.612Z,18.20
2018-06-22T16:22:28.735Z,18.30
2018-06-22T16:25:03.529Z,18.10
2018-06-22T16:27:37.398Z,18.20
2018-06-22T16:30:08.636Z,18.00
2018-06-22T16:32:38.966Z,18.00
2018-06-22T16:35:09.920Z,18.00
2018-06-22T16:37:39.774Z,17.90
2018-06-22T16:40:09.479Z,18.00
2018-06-22T16:42:39.272Z,18.10
2018-06-22T16:45:09.059Z,18.20
2018-06-22T16:47:38.819Z,18.20
2018-06-22T16:50:09.534Z,18.30
2018-06-22T16:52:40.220Z,18.10
2018-06-22T16:55:11.055Z,18.20
2018-06-22T16:57:41.499Z,18.20
2018-06-22T17:00:11.878Z,18.00
2018-06-22T17:02:41.644Z,18.00
2018-06-22T17:05:11.406Z,18.10
2018-06-22T17:07:46.276Z,18.10
2018-06-22T17:10:21.529Z,18.10
2018-06-22T17:12:56.685Z,18.20
2018-06-22T17:15:31.500Z,18.20
2018-06-22T17:18:06.429Z,17.90
2018-06-22T17:20:36.928Z,18.00
2018-06-22T17:23:10.262Z,17.90
2018-06-22T17:25:40.127Z,17.80
2018-06-22T17:28:09.918Z,17.60
2018-06-22T17:30:40.242Z,17.60
2018-06-22T17:33:10.677Z,17.70
2018-06-22T17:35:40.494Z,17.70
2018-06-22T17:38:11.532Z,17.70
2018-06-22T17:40:42.095Z,17.60
2018-06-22T17:43:12.540Z,17.60
2018-06-22T17:45:42.754Z,17.60
2018-06-22T17:48:13.948Z,17.40
2018-06-22T17:50:43.999Z,17.50
2018-06-22T17:53:14.172Z,17.30
2018-06-22T17:55:44.325Z,17.30
2018-06-22T17:58:15.085Z,17.20
2018-06-22T18:00:50.944Z,17.10
2018-06-22T18:03:26.489Z,17.00
2018-06-22T18:06:02.385Z,17.10
2018-06-22T18:08:37.881Z,17.10
2018-06-22T18:11:13.385Z,17.10
2018-06-22T18:13:43.561Z,16.90
2018-06-22T18:16:14.344Z,17.00
2018-06-22T18:18:44.421Z,17.00
2018-06-22T18:21:15.763Z,17.00
2018-06-22T18:23:46.308Z,17.10
2018-06-22T18:26:16.656Z,16.90
2018-06-22T18:28:46.985Z,16.80
2018-06-22T18:31:17.317Z,16.80
2018-06-22T18:33:47.055Z,16.70
2018-06-22T18:36:16.732Z,16.70
2018-06-22T18:38:47.040Z,16.80
2018-06-22T18:41:18.297Z,16.80
2018-06-22T18:44:00.386Z,16.50
2018-06-22T18:46:30.790Z,16.60
2018-06-22T18:49:01.396Z,16.50
2018-06-22T18:51:31.793Z,16.60
2018-06-22T18:54:06.642Z,16.60
2018-06-22T18:56:41.928Z,16.50
2018-06-22T18:59:16.980Z,16.50
2018-06-22T19:01:52.037Z,16.40
2018-06-22T19:04:23.397Z,16.40
2018-06-22T19:06:53.791Z,16.40
2018-06-22T19:09:24.242Z,16.30
2018-06-22T19:11:54.337Z,16.10
2018-06-22T19:14:24.544Z,16.00
2018-06-22T19:16:54.247Z,16.10
2018-06-22T19:19:24.013Z,16.10
2018-06-22T19:21:55.113Z,16.10
2018-06-22T19:24:25.462Z,16.00
2018-06-22T19:26:55.806Z,15.90
2018-06-22T19:29:26.832Z,15.90
2018-06-22T19:31:56.797Z,15.80
2018-06-22T19:34:32.491Z,15.80
2018-06-22T19:37:02.710Z,15.80
2018-06-22T19:39:32.425Z,15.70
2018-06-22T19:42:02.083Z,15.70
2018-06-22T19:44:36.638Z,15.70
2018-06-22T19:47:11.071Z,15.70
2018-06-22T19:51:53.430Z,15.80
2018-06-22T19:54:22.537Z,15.80
2018-06-22T19:56:51.646Z,15.80
2018-06-22T19:59:20.791Z,15.90
2018-06-22T20:01:50.198Z,15.90
2018-06-22T20:04:19.512Z,15.80
2018-06-22T20:06:48.800Z,15.60
2018-06-22T20:09:18.159Z,15.70
2018-06-22T20:11:47.451Z,15.60
2018-06-22T20:14:16.973Z,15.60
2018-06-22T20:16:46.225Z,15.50
2018-06-22T20:19:15.439Z,15.60
2018-06-22T20:21:44.902Z,15.40
2018-06-22T20:24:18.443Z,15.40
2018-06-22T20:26:47.793Z,15.50
2018-06-22T20:29:17.119Z,15.30
2018-06-22T20:31:46.383Z,15.40
2018-06-22T20:34:21.022Z,15.20
2018-06-22T20:36:55.482Z,15.40
2018-06-22T20:39:30.027Z,15.50
2018-06-22T20:42:04.609Z,15.40
2018-06-22T20:44:39.621Z,15.30
2018-06-22T20:47:13.963Z,15.30
2018-06-22T20:49:48.440Z,15.40
2018-06-22T20:52:17.880Z,15.50
2018-06-22T20:54:47.042Z,15.50
2018-06-22T20:57:16.413Z,15.50
2018-06-22T20:59:45.695Z,15.40
2018-06-22T21:02:14.956Z,15.40
2018-06-22T21:04:44.249Z,15.40
2018-06-22T21:07:13.325Z,15.30
2018-06-22T21:09:42.494Z,15.40
2018-06-22T21:12:11.845Z,15.30
2018-06-22T21:14:41.213Z,15.20
2018-06-22T21:17:10.709Z,15.20
2018-06-22T21:19:40.048Z,15.20
2018-06-22T21:22:11.623Z,15.20
2018-06-22T21:24:41.426Z,15.20
2018-06-22T21:27:15.928Z,15.10
2018-06-22T21:29:50.429Z,15.20
2018-06-22T21:32:24.889Z,15.20
2018-06-22T21:34:59.494Z,15.00
2018-06-22T21:37:34.350Z,15.10
2018-06-22T21:40:03.679Z,15.20
2018-06-22T21:42:32.913Z,15.10
2018-06-22T21:45:02.061Z,15.10
2018-06-22T21:47:31.321Z,15.00
2018-06-22T21:50:00.745Z,15.10
2018-06-22T21:52:30.020Z,15.10
2018-06-22T21:54:59.471Z,15.00
2018-06-22T21:57:28.731Z,15.10
2018-06-22T21:59:57.925Z,14.90
2018-06-22T22:02:27.304Z,14.80
2018-06-22T22:04:56.593Z,14.80
2018-06-22T22:07:25.891Z,14.80
2018-06-22T22:09:55.090Z,14.60
2018-06-22T22:12:24.392Z,14.70
2018-06-22T22:14:53.519Z,14.70
2018-06-22T22:17:22.881Z,14.70
2018-06-22T22:19:52.339Z,14.70
2018-06-22T22:22:21.468Z,14.60
2018-06-22T22:24:50.975Z,14.70
2018-06-22T22:27:20.475Z,14.70
2018-06-22T22:29:50.017Z,14.60
2018-06-22T22:32:19.271Z,14.70
2018-06-22T22:34:48.491Z,14.60
2018-06-22T22:37:17.619Z,14.50
2018-06-22T22:39:46.961Z,14.60
2018-06-22T22:42:16.269Z,14.60
2018-06-22T22:44:45.547Z,14.70
2018-06-22T22:47:14.919Z,14.70
2018-06-22T22:49:44.123Z,14.70
2018-06-22T22:52:13.381Z,14.70
2018-06-22T22:54:42.725Z,14.70
2018-06-22T22:57:12.063Z,14.70
2018-06-22T22:59:41.613Z,14.60
2018-06-22T23:02:10.977Z,14.60
2018-06-22T23:04:40.119Z,14.50
2018-06-22T23:07:09.456Z,14.50
2018-06-22T23:09:38.615Z,14.30
2018-06-22T23:12:07.803Z,14.20
2018-06-22T23:14:36.931Z,14.40
2018-06-22T23:17:06.289Z,14.40
2018-06-22T23:19:35.759Z,14.50
2018-06-22T23:22:05.085Z,14.50
2018-06-22T23:24:34.399Z,14.30
2018-06-22T23:27:03.617Z,14.40
2018-06-22T23:29:32.717Z,14.30
2018-06-22T23:32:01.981Z,14.30
2018-06-22T23:34:31.330Z,14.40
2018-06-22T23:37:00.519Z,14.30
2018-06-22T23:39:29.826Z,14.20
2018-06-22T23:41:59.111Z,14.20
2018-06-22T23:44:28.414Z,14.10
2018-06-22T23:46:57.689Z,14.10
2018-06-22T23:49:26.947Z,14.10
2018-06-22T23:51:56.037Z,13.90
2018-06-22T23:54:25.436Z,13.90
2018-06-22T23:56:54.917Z,14.00
2018-06-22T23:59:23.996Z,14.00
